Terminal Aerodrome Forecast
Issued by NWS

Home | Current Version | Previous Version | Text Only | Print | Product List | Glossary Off
Versions: 1 2 3 4 5 6 7 8 9 10 11 12 13 14 15 16 17 18 19 20 21 22 23 24 25 26 27 28 29 30 31 32 33 34 35 36 37 38 39 40 41 42 43 44 45 46 47 48

000
FTUS43 KGRB 280520
TAFRHI
TAF
KRHI 280520Z 2806/2906 13005KT 6SM BR SCT007 OVC035
      TEMPO 2806/2808 1SM -SHRA BR OVC007
     FM280800 14004KT 3SM BR SCT003 OVC010
      TEMPO 2808/2812 1/2SM -SHRA FG OVC003
     FM281500 17007KT P6SM VCSH OVC005
     FM281600 17008KT P6SM VCSH OVC008
     FM281700 17008KT P6SM SHRA OVC010
     FM281800 17008KT P6SM SHRA OVC020
     FM282000 17008KT P6SM SHRA BKN035
     FM290300 18004KT P6SM SHRA BKN040 BKN070=

USA.gov is the U.S. government's official web portal to all federal, state and local government web resources and services.